sensor_id;sensor_type;location;lat;lon;timestamp;pressure;altitude;pressure_sealevel;temperature;humidity
43155;BME280;34212;51.018;13.586;2023-03-20T00:00:43;97881.50;;;10.47;87.19
43155;BME280;34212;51.018;13.586;2023-03-20T00:05:45;97889.78;;;10.52;87.32
43155;BME280;34212;51.018;13.586;2023-03-20T00:10:47;97896.91;;;10.60;87.63
43155;BME280;34212;51.018;13.586;2023-03-20T00:15:48;97894.00;;;10.70;87.42
43155;BME280;34212;51.018;13.586;2023-03-20T00:20:51;97897.25;;;10.80;87.55
43155;BME280;34212;51.018;13.586;2023-03-20T00:25:53;97908.56;;;10.82;86.99
43155;BME280;34212;51.018;13.586;2023-03-20T00:30:56;97907.91;;;10.80;87.18
43155;BME280;34212;51.018;13.586;2023-03-20T00:35:57;97901.56;;;10.81;87.34
43155;BME280;34212;51.018;13.586;2023-03-20T00:40:59;97904.06;;;10.82;86.84
43155;BME280;34212;51.018;13.586;2023-03-20T00:46:01;97895.88;;;10.84;86.79
43155;BME280;34212;51.018;13.586;2023-03-20T00:51:04;97901.69;;;10.88;86.71
43155;BME280;34212;51.018;13.586;2023-03-20T00:56:27;97890.38;;;10.85;86.56
43155;BME280;34212;51.018;13.586;2023-03-20T01:01:30;97899.75;;;10.81;86.70
43155;BME280;34212;51.018;13.586;2023-03-20T01:06:32;97905.91;;;10.82;86.57
43155;BME280;34212;51.018;13.586;2023-03-20T01:11:34;97898.19;;;10.87;86.71
43155;BME280;34212;51.018;13.586;2023-03-20T01:16:36;97892.84;;;10.87;86.71
43155;BME280;34212;51.018;13.586;2023-03-20T01:21:37;97896.53;;;10.86;86.13
43155;BME280;34212;51.018;13.586;2023-03-20T01:26:41;97889.97;;;10.74;86.31
43155;BME280;34212;51.018;13.586;2023-03-20T01:31:43;97884.88;;;10.64;86.13
43155;BME280;34212;51.018;13.586;2023-03-20T01:36:50;97885.56;;;10.58;86.18
43155;BME280;34212;51.018;13.586;2023-03-20T01:41:53;97892.09;;;10.55;86.16
43155;BME280;34212;51.018;13.586;2023-03-20T01:46:56;97887.94;;;10.53;86.09
43155;BME280;34212;51.018;13.586;2023-03-20T01:51:59;97886.28;;;10.52;86.43
43155;BME280;34212;51.018;13.586;2023-03-20T01:57:14;97886.28;;;10.52;85.99
43155;BME280;34212;51.018;13.586;2023-03-20T02:02:21;97880.13;;;10.51;86.21
43155;BME280;34212;51.018;13.586;2023-03-20T02:07:24;97887.09;;;10.52;86.37
43155;BME280;34212;51.018;13.586;2023-03-20T02:12:40;97889.63;;;10.54;86.35
43155;BME280;34212;51.018;13.586;2023-03-20T02:17:45;97879.78;;;10.54;86.37
43155;BME280;34212;51.018;13.586;2023-03-20T02:45:11;97887.19;;;10.67;85.65
43155;BME280;34212;51.018;13.586;2023-03-20T03:00:36;97886.31;;;10.75;85.42
43155;BME280;34212;51.018;13.586;2023-03-20T03:05:50;97881.59;;;10.77;85.55
43155;BME280;34212;51.018;13.586;2023-03-20T03:11:00;97878.09;;;10.76;84.99
43155;BME280;34212;51.018;13.586;2023-03-20T03:16:09;97880.97;;;10.75;84.91
43155;BME280;34212;51.018;13.586;2023-03-20T03:21:14;97884.34;;;10.69;85.02
43155;BME280;34212;51.018;13.586;2023-03-20T03:26:27;97878.72;;;10.63;84.56
43155;BME280;34212;51.018;13.586;2023-03-20T03:31:31;97881.38;;;10.63;85.63
43155;BME280;34212;51.018;13.586;2023-03-20T03:36:57;97879.06;;;10.60;85.48
43155;BME280;34212;51.018;13.586;2023-03-20T03:42:29;97880.72;;;10.61;85.75
43155;BME280;34212;51.018;13.586;2023-03-20T03:47:38;97884.97;;;10.71;85.59
43155;BME280;34212;51.018;13.586;2023-03-20T03:52:43;97885.28;;;10.76;85.48
43155;BME280;34212;51.018;13.586;2023-03-20T03:57:59;97882.25;;;10.79;85.38
43155;BME280;34212;51.018;13.586;2023-03-20T04:03:04;97880.59;;;10.78;85.24
43155;BME280;34212;51.018;13.586;2023-03-20T04:08:07;97886.75;;;10.78;85.36
43155;BME280;34212;51.018;13.586;2023-03-20T04:13:09;97886.75;;;10.78;85.42
43155;BME280;34212;51.018;13.586;2023-03-20T04:18:15;97889.59;;;10.77;86.06
43155;BME280;34212;51.018;13.586;2023-03-20T04:23:19;97900.97;;;10.71;84.88
43155;BME280;34212;51.018;13.586;2023-03-20T04:28:21;97903.06;;;10.60;85.40
43155;BME280;34212;51.018;13.586;2023-03-20T04:33:30;97887.94;;;10.53;85.69
43155;BME280;34212;51.018;13.586;2023-03-20T04:38:55;97885.50;;;10.43;85.00
43155;BME280;34212;51.018;13.586;2023-03-20T04:43:59;97894.91;;;10.31;85.08
43155;BME280;34212;51.018;13.586;2023-03-20T04:49:00;97899.25;;;10.24;85.22
43155;BME280;34212;51.018;13.586;2023-03-20T04:54:03;97892.63;;;10.20;85.11
43155;BME280;34212;51.018;13.586;2023-03-20T04:59:05;97899.63;;;10.21;85.44
43155;BME280;34212;51.018;13.586;2023-03-20T05:04:07;97911.56;;;10.25;85.45
43155;BME280;34212;51.018;13.586;2023-03-20T05:09:10;97911.25;;;10.28;85.51
43155;BME280;34212;51.018;13.586;2023-03-20T05:14:12;97910.56;;;10.34;85.23
43155;BME280;34212;51.018;13.586;2023-03-20T05:19:38;97923.84;;;10.42;85.78
43155;BME280;34212;51.018;13.586;2023-03-20T05:25:08;97933.47;;;10.51;84.98
43155;BME280;34212;51.018;13.586;2023-03-20T05:30:39;97941.09;;;10.54;84.92
43155;BME280;34212;51.018;13.586;2023-03-20T05:35:59;97935.94;;;10.53;85.10
43155;BME280;34212;51.018;13.586;2023-03-20T05:41:26;97944.78;;;10.53;84.89
43155;BME280;34212;51.018;13.586;2023-03-20T05:46:44;97949.63;;;10.50;84.71
43155;BME280;34212;51.018;13.586;2023-03-20T05:52:09;97954.47;;;10.46;85.03
43155;BME280;34212;51.018;13.586;2023-03-20T05:57:20;97960.16;;;10.43;84.79
43155;BME280;34212;51.018;13.586;2023-03-20T06:02:26;97956.84;;;10.41;85.06
43155;BME280;34212;51.018;13.586;2023-03-20T06:07:37;97960.22;;;10.35;85.43
43155;BME280;34212;51.018;13.586;2023-03-20T06:12:44;97964.22;;;10.31;84.77
43155;BME280;34212;51.018;13.586;2023-03-20T06:17:47;97957.59;;;10.27;84.80
43155;BME280;34212;51.018;13.586;2023-03-20T06:22:50;97960.56;;;10.24;85.58
43155;BME280;34212;51.018;13.586;2023-03-20T06:27:52;97969.38;;;10.24;85.59
43155;BME280;34212;51.018;13.586;2023-03-20T06:32:54;97972.88;;;10.25;85.88
43155;BME280;34212;51.018;13.586;2023-03-20T06:38:02;97975.19;;;10.36;85.50
43155;BME280;34212;51.018;13.586;2023-03-20T06:43:04;97974.47;;;10.50;85.88
43155;BME280;34212;51.018;13.586;2023-03-20T06:48:16;97977.53;;;10.62;85.54
43155;BME280;34212;51.018;13.586;2023-03-20T06:53:23;97965.69;;;10.64;85.66
43155;BME280;34212;51.018;13.586;2023-03-20T06:58:35;97971.34;;;10.70;85.58
43155;BME280;34212;51.018;13.586;2023-03-20T07:03:36;97971.13;;;10.79;85.34
43155;BME280;34212;51.018;13.586;2023-03-20T07:08:38;97962.34;;;10.94;85.62
43155;BME280;34212;51.018;13.586;2023-03-20T07:13:40;97976.09;;;11.05;84.86
43155;BME280;34212;51.018;13.586;2023-03-20T07:18:55;97967.31;;;11.20;84.92
43155;BME280;34212;51.018;13.586;2023-03-20T07:23:57;97966.78;;;11.39;84.17
43155;BME280;34212;51.018;13.586;2023-03-20T07:28:59;97992.00;;;11.60;83.81
43155;BME280;34212;51.018;13.586;2023-03-20T07:34:02;97981.78;;;11.78;83.25
43155;BME280;34212;51.018;13.586;2023-03-20T07:39:08;97989.47;;;12.11;83.15
43155;BME280;34212;51.018;13.586;2023-03-20T07:44:12;97996.28;;;12.28;81.65
43155;BME280;34212;51.018;13.586;2023-03-20T07:49:21;97996.59;;;12.55;82.34
43155;BME280;34212;51.018;13.586;2023-03-20T07:54:23;97988.91;;;12.66;80.94
43155;BME280;34212;51.018;13.586;2023-03-20T07:59:24;98004.28;;;12.79;81.35
43155;BME280;34212;51.018;13.586;2023-03-20T08:04:26;98002.72;;;12.85;80.64
43155;BME280;34212;51.018;13.586;2023-03-20T08:09:28;98001.50;;;12.87;79.99
43155;BME280;34212;51.018;13.586;2023-03-20T08:14:29;98008.50;;;12.88;79.65
43155;BME280;34212;51.018;13.586;2023-03-20T08:19:31;98014.81;;;12.81;79.63
43155;BME280;34212;51.018;13.586;2023-03-20T08:24:32;98019.81;;;12.69;79.30
43155;BME280;34212;51.018;13.586;2023-03-20T08:29:34;98013.66;;;12.68;80.17
43155;BME280;34212;51.018;13.586;2023-03-20T08:34:36;98005.41;;;12.70;79.58
43155;BME280;34212;51.018;13.586;2023-03-20T08:39:38;98005.03;;;12.73;79.97
43155;BME280;34212;51.018;13.586;2023-03-20T08:44:40;98002.66;;;12.78;80.46
43155;BME280;34212;51.018;13.586;2023-03-20T08:49:41;98009.41;;;12.74;80.62
43155;BME280;34212;51.018;13.586;2023-03-20T08:54:43;98016.94;;;12.70;80.63
43155;BME280;34212;51.018;13.586;2023-03-20T08:59:45;98022.22;;;12.64;81.09
43155;BME280;34212;51.018;13.586;2023-03-20T09:04:47;98027.25;;;12.88;81.15
43155;BME280;34212;51.018;13.586;2023-03-20T09:09:48;98031.88;;;13.16;81.66
43155;BME280;34212;51.018;13.586;2023-03-20T09:14:50;98031.09;;;13.22;79.53
43155;BME280;34212;51.018;13.586;2023-03-20T09:19:51;98030.66;;;12.97;79.43
43155;BME280;34212;51.018;13.586;2023-03-20T09:24:53;98032.59;;;12.88;79.60
43155;BME280;34212;51.018;13.586;2023-03-20T09:29:54;98033.81;;;13.07;80.02
43155;BME280;34212;51.018;13.586;2023-03-20T09:34:56;98034.25;;;13.26;79.93
43155;BME280;34212;51.018;13.586;2023-03-20T09:39:57;98037.28;;;13.23;78.70
43155;BME280;34212;51.018;13.586;2023-03-20T09:55:59;98054.81;;;12.53;79.59
43155;BME280;34212;51.018;13.586;2023-03-20T10:01:04;98052.31;;;12.51;79.75
43155;BME280;34212;51.018;13.586;2023-03-20T10:06:12;98048.34;;;12.62;79.49
43155;BME280;34212;51.018;13.586;2023-03-20T10:11:30;98053.59;;;12.70;80.09
43155;BME280;34212;51.018;13.586;2023-03-20T10:27:16;98057.59;;;12.95;80.07
43155;BME280;34212;51.018;13.586;2023-03-20T10:32:34;98056.63;;;13.18;78.98
43155;BME280;34212;51.018;13.586;2023-03-20T10:43:09;98041.44;;;13.68;77.78
43155;BME280;34212;51.018;13.586;2023-03-20T10:48:26;98054.91;;;13.75;77.88
43155;BME280;34212;51.018;13.586;2023-03-20T10:53:36;98046.53;;;13.63;77.76
43155;BME280;34212;51.018;13.586;2023-03-20T10:58:43;98033.75;;;13.58;78.09
43155;BME280;34212;51.018;13.586;2023-03-20T11:03:47;98043.22;;;13.61;78.44
43155;BME280;34212;51.018;13.586;2023-03-20T11:08:51;98048.00;;;13.66;78.80
43155;BME280;34212;51.018;13.586;2023-03-20T11:13:53;98044.47;;;13.58;77.92
43155;BME280;34212;51.018;13.586;2023-03-20T11:19:03;98038.72;;;13.40;78.44
43155;BME280;34212;51.018;13.586;2023-03-20T11:24:21;98041.97;;;13.35;78.66
43155;BME280;34212;51.018;13.586;2023-03-20T11:29:31;98037.69;;;13.41;78.25
43155;BME280;34212;51.018;13.586;2023-03-20T11:34:36;98030.59;;;13.55;79.14
43155;BME280;34212;51.018;13.586;2023-03-20T11:45:02;98026.38;;;13.95;77.51
43155;BME280;34212;51.018;13.586;2023-03-20T11:50:05;98027.44;;;14.01;77.85
43155;BME280;34212;51.018;13.586;2023-03-20T11:55:31;98025.53;;;13.95;77.28
43155;BME280;34212;51.018;13.586;2023-03-20T12:00:38;98008.06;;;13.99;77.92
43155;BME280;34212;51.018;13.586;2023-03-20T12:05:40;98005.94;;;13.94;77.46
43155;BME280;34212;51.018;13.586;2023-03-20T12:10:45;98004.88;;;13.89;77.90
43155;BME280;34212;51.018;13.586;2023-03-20T12:15:56;97996.22;;;13.86;77.79
43155;BME280;34212;51.018;13.586;2023-03-20T12:21:10;98002.00;;;13.90;77.34
43155;BME280;34212;51.018;13.586;2023-03-20T12:26:19;97999.47;;;13.82;77.30
43155;BME280;34212;51.018;13.586;2023-03-20T12:31:45;97999.88;;;13.79;77.89
43155;BME280;34212;51.018;13.586;2023-03-20T12:36:51;97997.78;;;13.74;78.24
43155;BME280;34212;51.018;13.586;2023-03-20T12:42:00;98004.25;;;13.58;78.59
43155;BME280;34212;51.018;13.586;2023-03-20T12:53:10;97996.06;;;13.67;78.31
43155;BME280;34212;51.018;13.586;2023-03-20T13:03:47;97986.06;;;13.54;77.09
43155;BME280;34212;51.018;13.586;2023-03-20T13:36:29;97952.56;;;13.65;77.50
43155;BME280;34212;51.018;13.586;2023-03-20T13:41:35;97951.00;;;13.49;78.15
43155;BME280;34212;51.018;13.586;2023-03-20T13:46:42;97945.16;;;13.38;78.80
43155;BME280;34212;51.018;13.586;2023-03-20T13:51:54;97955.88;;;13.38;78.69
43155;BME280;34212;51.018;13.586;2023-03-20T14:02:22;97946.69;;;13.26;79.16
43155;BME280;34212;51.018;13.586;2023-03-20T14:07:33;97942.84;;;13.14;79.27
43155;BME280;34212;51.018;13.586;2023-03-20T14:12:35;97946.50;;;13.06;79.69
43155;BME280;34212;51.018;13.586;2023-03-20T14:17:42;97947.72;;;13.04;79.96
43155;BME280;34212;51.018;13.586;2023-03-20T14:22:45;97949.22;;;12.70;80.28
43155;BME280;34212;51.018;13.586;2023-03-20T14:48:49;97949.34;;;11.81;85.89
43155;BME280;34212;51.018;13.586;2023-03-20T14:53:57;97949.34;;;11.81;86.06
43155;BME280;34212;51.018;13.586;2023-03-20T14:59:05;97945.75;;;11.74;85.94
43155;BME280;34212;51.018;13.586;2023-03-20T15:09:23;97941.41;;;11.58;86.50
43155;BME280;34212;51.018;13.586;2023-03-20T15:14:27;97946.22;;;11.63;86.65
43155;BME280;34212;51.018;13.586;2023-03-20T15:19:30;97944.81;;;11.67;86.63
43155;BME280;34212;51.018;13.586;2023-03-20T15:24:33;97942.22;;;11.59;86.54
43155;BME280;34212;51.018;13.586;2023-03-20T15:29:35;97941.00;;;11.46;86.76
43155;BME280;34212;51.018;13.586;2023-03-20T15:34:37;97938.81;;;11.35;86.92
43155;BME280;34212;51.018;13.586;2023-03-20T15:39:43;97932.19;;;11.31;87.14
43155;BME280;34212;51.018;13.586;2023-03-20T15:44:47;97926.13;;;11.37;87.93
43155;BME280;34212;51.018;13.586;2023-03-20T15:49:58;97926.66;;;11.47;87.69
43155;BME280;34212;51.018;13.586;2023-03-20T15:55:11;97938.94;;;11.56;87.44
43155;BME280;34212;51.018;13.586;2023-03-20T16:00:36;97921.06;;;11.57;87.38
43155;BME280;34212;51.018;13.586;2023-03-20T16:05:43;97938.94;;;11.56;87.35
43155;BME280;34212;51.018;13.586;2023-03-20T16:10:45;97941.59;;;11.56;87.23
43155;BME280;34212;51.018;13.586;2023-03-20T16:15:47;97949.63;;;11.56;87.12
43155;BME280;34212;51.018;13.586;2023-03-20T16:20:53;97937.09;;;11.57;87.43
43155;BME280;34212;51.018;13.586;2023-03-20T16:26:00;97934.78;;;11.54;87.39
43155;BME280;34212;51.018;13.586;2023-03-20T16:31:07;97932.38;;;11.44;87.95
43155;BME280;34212;51.018;13.586;2023-03-20T16:36:18;97929.78;;;11.36;87.90
43155;BME280;34212;51.018;13.586;2023-03-20T16:41:32;97935.22;;;11.28;87.71
43155;BME280;34212;51.018;13.586;2023-03-20T16:46:34;97937.88;;;11.28;88.42
43155;BME280;34212;51.018;13.586;2023-03-20T16:51:36;97938.97;;;11.33;87.82
43155;BME280;34212;51.018;13.586;2023-03-20T16:56:38;97927.31;;;11.35;88.05
43155;BME280;34212;51.018;13.586;2023-03-20T17:01:43;97928.78;;;11.37;87.59
43155;BME280;34212;51.018;13.586;2023-03-20T17:06:48;97919.91;;;11.37;87.60
43155;BME280;34212;51.018;13.586;2023-03-20T17:11:58;97937.16;;;11.34;87.73
43155;BME280;34212;51.018;13.586;2023-03-20T17:17:00;97935.06;;;11.21;87.76
43155;BME280;34212;51.018;13.586;2023-03-20T17:22:11;97925.63;;;11.19;88.01
43155;BME280;34212;51.018;13.586;2023-03-20T17:27:14;97932.25;;;11.23;88.26
43155;BME280;34212;51.018;13.586;2023-03-20T17:32:18;97930.09;;;11.18;87.83
43155;BME280;34212;51.018;13.586;2023-03-20T17:37:23;97935.16;;;11.13;88.20
43155;BME280;34212;51.018;13.586;2023-03-20T17:42:30;97935.34;;;11.12;88.15
43155;BME280;34212;51.018;13.586;2023-03-20T17:47:31;97930.00;;;11.12;87.93
43155;BME280;34212;51.018;13.586;2023-03-20T17:52:33;97932.66;;;11.12;87.92
43155;BME280;34212;51.018;13.586;2023-03-20T17:57:36;97927.69;;;11.08;87.94
43155;BME280;34212;51.018;13.586;2023-03-20T18:02:38;97941.75;;;11.02;88.02
43155;BME280;34212;51.018;13.586;2023-03-20T18:07:40;97933.47;;;10.97;88.17
43155;BME280;34212;51.018;13.586;2023-03-20T18:12:42;97934.81;;;10.93;88.06
43155;BME280;34212;51.018;13.586;2023-03-20T18:17:43;97931.16;;;10.94;88.17
43155;BME280;34212;51.018;13.586;2023-03-20T18:22:45;97938.19;;;10.87;88.21
43155;BME280;34212;51.018;13.586;2023-03-20T18:27:47;97927.59;;;10.79;87.95
43155;BME280;34212;51.018;13.586;2023-03-20T18:32:49;97931.94;;;10.80;88.53
43155;BME280;34212;51.018;13.586;2023-03-20T18:37:51;97942.25;;;10.83;88.31
43155;BME280;34212;51.018;13.586;2023-03-20T18:42:54;97938.56;;;10.84;88.44
43155;BME280;34212;51.018;13.586;2023-03-20T18:47:56;97930.38;;;10.85;88.07
43155;BME280;34212;51.018;13.586;2023-03-20T18:52:58;97944.38;;;10.88;88.18
43155;BME280;34212;51.018;13.586;2023-03-20T18:58:00;97944.19;;;10.89;88.33
43155;BME280;34212;51.018;13.586;2023-03-20T19:03:07;97935.16;;;10.90;88.38
43155;BME280;34212;51.018;13.586;2023-03-20T19:08:13;97949.38;;;10.91;88.46
43155;BME280;34212;51.018;13.586;2023-03-20T19:13:18;97944.03;;;10.91;88.32
43155;BME280;34212;51.018;13.586;2023-03-20T19:18:22;97944.75;;;10.84;88.52
43155;BME280;34212;51.018;13.586;2023-03-20T19:23:25;97939.53;;;10.91;88.70
43155;BME280;34212;51.018;13.586;2023-03-20T19:28:29;97936.03;;;10.91;88.06
43155;BME280;34212;51.018;13.586;2023-03-20T19:33:41;97939.28;;;10.78;88.14
43155;BME280;34212;51.018;13.586;2023-03-20T19:38:43;97937.81;;;10.75;88.72
43155;BME280;34212;51.018;13.586;2023-03-20T19:43:44;97930.28;;;10.79;88.04
43155;BME280;34212;51.018;13.586;2023-03-20T19:48:54;97933.97;;;10.78;88.07
43155;BME280;34212;51.018;13.586;2023-03-20T19:53:58;97930.50;;;10.69;87.12
43155;BME280;34212;51.018;13.586;2023-03-20T19:58:59;97934.59;;;10.57;86.97
43155;BME280;34212;51.018;13.586;2023-03-20T20:04:01;97939.03;;;10.42;86.99
43155;BME280;34212;51.018;13.586;2023-03-20T20:09:03;97928.44;;;10.17;87.52
43155;BME280;34212;51.018;13.586;2023-03-20T20:14:05;97924.19;;;10.00;88.20
43155;BME280;34212;51.018;13.586;2023-03-20T20:19:10;97923.25;;;9.84;87.65
43155;BME280;34212;51.018;13.586;2023-03-20T20:24:14;97914.28;;;9.77;87.86
43155;BME280;34212;51.018;13.586;2023-03-20T20:29:16;97908.81;;;9.79;87.96
43155;BME280;34212;51.018;13.586;2023-03-20T20:34:19;97910.31;;;9.81;87.64
43155;BME280;34212;51.018;13.586;2023-03-20T20:39:42;97909.59;;;9.87;88.15
43155;BME280;34212;51.018;13.586;2023-03-20T20:44:45;97910.56;;;9.94;88.47
43155;BME280;34212;51.018;13.586;2023-03-20T20:49:47;97909.69;;;10.02;89.11
43155;BME280;34212;51.018;13.586;2023-03-20T20:54:48;97913.34;;;10.09;88.64
43155;BME280;34212;51.018;13.586;2023-03-20T20:59:50;97919.97;;;10.13;88.61
43155;BME280;34212;51.018;13.586;2023-03-20T21:04:54;97911.28;;;10.20;88.55
43155;BME280;34212;51.018;13.586;2023-03-20T21:09:56;97908.09;;;10.24;88.86
43155;BME280;34212;51.018;13.586;2023-03-20T21:14:58;97913.25;;;10.26;88.35
43155;BME280;34212;51.018;13.586;2023-03-20T21:19:59;97923.25;;;10.24;88.88
43155;BME280;34212;51.018;13.586;2023-03-20T21:25:01;97909.94;;;10.24;89.14
43155;BME280;34212;51.018;13.586;2023-03-20T21:30:15;97913.25;;;10.26;88.96
43155;BME280;34212;51.018;13.586;2023-03-20T21:35:19;97920.59;;;10.32;89.07
43155;BME280;34212;51.018;13.586;2023-03-20T21:40:20;97917.84;;;10.40;88.92
43155;BME280;34212;51.018;13.586;2023-03-20T21:45:22;97922.47;;;10.46;89.01
43155;BME280;34212;51.018;13.586;2023-03-20T21:50:43;97924.78;;;10.49;88.59
43155;BME280;34212;51.018;13.586;2023-03-20T21:56:05;97928.28;;;10.50;89.00
43155;BME280;34212;51.018;13.586;2023-03-20T22:01:27;97923.16;;;10.48;88.83
43155;BME280;34212;51.018;13.586;2023-03-20T22:06:48;97925.84;;;10.40;88.36
43155;BME280;34212;51.018;13.586;2023-03-20T22:12:10;97932.91;;;10.33;88.65
43155;BME280;34212;51.018;13.586;2023-03-20T22:17:31;97938.91;;;10.27;89.04
43155;BME280;34212;51.018;13.586;2023-03-20T22:22:54;97941.59;;;10.27;89.59
43155;BME280;34212;51.018;13.586;2023-03-20T22:28:16;97948.88;;;10.33;89.48
43155;BME280;34212;51.018;13.586;2023-03-20T22:33:38;97940.53;;;10.36;88.92
43155;BME280;34212;51.018;13.586;2023-03-20T22:38:59;97940.53;;;10.36;88.98
43155;BME280;34212;51.018;13.586;2023-03-20T22:44:20;97946.09;;;10.26;88.87
43155;BME280;34212;51.018;13.586;2023-03-20T22:49:42;97956.47;;;10.13;89.83
43155;BME280;34212;51.018;13.586;2023-03-20T22:54:43;97947.66;;;10.04;89.45
43155;BME280;34212;51.018;13.586;2023-03-20T22:59:45;97942.69;;;10.01;90.08
43155;BME280;34212;51.018;13.586;2023-03-20T23:04:47;97944.88;;;9.98;90.25
43155;BME280;34212;51.018;13.586;2023-03-20T23:09:48;97924.09;;;9.85;90.09
43155;BME280;34212;51.018;13.586;2023-03-20T23:14:49;97929.44;;;9.77;91.25
43155;BME280;34212;51.018;13.586;2023-03-20T23:19:53;97929.97;;;9.72;91.41
43155;BME280;34212;51.018;13.586;2023-03-20T23:25:11;97929.13;;;9.71;91.53
43155;BME280;34212;51.018;13.586;2023-03-20T23:30:32;97933.81;;;9.69;91.01
43155;BME280;34212;51.018;13.586;2023-03-20T23:35:45;97926.16;;;9.66;92.00
43155;BME280;34212;51.018;13.586;2023-03-20T23:40:48;97925.50;;;9.64;91.78
43155;BME280;34212;51.018;13.586;2023-03-20T23:45:50;97932.13;;;9.68;91.85
43155;BME280;34212;51.018;13.586;2023-03-20T23:50:52;97928.47;;;9.69;91.38
43155;BME280;34212;51.018;13.586;2023-03-20T23:55:55;97911.50;;;9.70;91.18
